createdAt,value
2018-09-20T00:02:24.814Z,8.57
2018-09-20T00:04:53.471Z,15.93
2018-09-20T00:07:21.852Z,13.67
2018-09-20T00:09:50.339Z,8.80
2018-09-20T00:12:18.713Z,10.37
2018-09-20T00:14:47.182Z,9.17
2018-09-20T00:17:15.660Z,12.55
2018-09-20T00:19:44.128Z,10.23
2018-09-20T00:22:12.569Z,8.20
2018-09-20T00:24:41.052Z,10.97
2018-09-20T00:27:09.434Z,9.00
2018-09-20T00:29:37.928Z,9.30
2018-09-20T00:32:06.370Z,8.57
2018-09-20T00:34:34.788Z,15.13
2018-09-20T00:37:04.119Z,8.40
2018-09-20T00:39:33.448Z,14.70
2018-09-20T00:42:01.927Z,9.47
2018-09-20T00:44:30.339Z,15.63
2018-09-20T00:46:58.768Z,11.07
2018-09-20T00:49:27.184Z,9.23
2018-09-20T00:51:56.561Z,10.83
2018-09-20T00:54:25.675Z,11.70
2018-09-20T00:56:54.710Z,8.75
2018-09-20T00:59:23.157Z,11.80
2018-09-20T01:01:51.606Z,9.60
2018-09-20T01:04:19.983Z,10.43
2018-09-20T01:06:48.400Z,10.80
2018-09-20T01:09:17.407Z,10.20
2018-09-20T01:11:45.871Z,10.30
2018-09-20T01:14:14.253Z,9.43
2018-09-20T01:16:42.673Z,13.75
2018-09-20T01:19:12.035Z,13.60
2018-09-20T01:21:41.351Z,11.35
2018-09-20T01:24:09.737Z,10.93
2018-09-20T01:26:38.187Z,11.23
2018-09-20T01:29:06.571Z,9.57
2018-09-20T01:31:35.082Z,11.33
2018-09-20T01:34:03.744Z,11.13
2018-09-20T01:36:32.216Z,13.40
2018-09-20T01:39:00.630Z,12.75
2018-09-20T01:41:29.543Z,12.60
2018-09-20T01:43:57.928Z,12.00
2018-09-20T01:46:26.383Z,11.67
2018-09-20T01:48:54.744Z,11.00
2018-09-20T01:51:23.946Z,10.30
2018-09-20T01:53:52.421Z,12.67
2018-09-20T01:56:20.844Z,13.10
2018-09-20T01:58:49.326Z,11.30
2018-09-20T02:01:18.625Z,15.50
2018-09-20T02:03:47.969Z,10.83
2018-09-20T02:06:16.467Z,11.20
2018-09-20T02:08:45.664Z,15.53
2018-09-20T02:11:14.164Z,12.13
2018-09-20T02:13:43.144Z,10.93
2018-09-20T02:16:11.597Z,11.20
2018-09-20T02:18:40.015Z,10.60
2018-09-20T02:21:08.777Z,15.57
2018-09-20T02:23:37.152Z,11.80
2018-09-20T02:26:05.605Z,14.20
2018-09-20T02:28:34.945Z,10.33
2018-09-20T02:31:03.413Z,13.48
2018-09-20T02:33:31.816Z,13.40
2018-09-20T02:36:00.281Z,14.13
2018-09-20T02:38:28.717Z,14.93
2018-09-20T02:40:57.280Z,12.20
2018-09-20T02:43:25.747Z,17.40
2018-09-20T02:45:54.302Z,14.87
2018-09-20T02:48:22.749Z,11.47
2018-09-20T02:50:51.800Z,18.47
2018-09-20T02:53:20.749Z,12.27
2018-09-20T02:55:49.200Z,13.83
2018-09-20T02:58:17.890Z,11.30
2018-09-20T03:00:46.375Z,13.73
2018-09-20T03:03:14.825Z,13.57
2018-09-20T03:05:43.270Z,16.23
2018-09-20T03:08:11.711Z,13.40
2018-09-20T03:13:33.899Z,14.13
2018-09-20T03:16:03.200Z,12.25
2018-09-20T03:18:31.621Z,17.33
2018-09-20T03:21:00.116Z,15.30
2018-09-20T03:23:28.625Z,15.60
2018-09-20T03:25:57.077Z,14.97
2018-09-20T03:28:26.195Z,14.40
2018-09-20T03:30:55.073Z,12.83
2018-09-20T03:33:23.537Z,11.90
2018-09-20T03:35:51.975Z,16.87
2018-09-20T03:38:20.341Z,11.97
2018-09-20T03:40:48.782Z,13.70
2018-09-20T03:43:17.183Z,12.20
2018-09-20T03:45:45.596Z,12.77
2018-09-20T03:48:14.922Z,11.93
2018-09-20T03:50:43.871Z,11.93
2018-09-20T03:53:12.490Z,16.60
2018-09-20T03:55:40.936Z,12.40
2018-09-20T03:58:09.391Z,12.43
2018-09-20T04:00:38.247Z,13.33
2018-09-20T04:03:06.931Z,12.80
2018-09-20T04:05:35.334Z,14.90
2018-09-20T04:08:04.374Z,14.30
2018-09-20T04:10:33.742Z,15.90
2018-09-20T04:13:02.240Z,19.13
2018-09-20T04:15:30.633Z,14.97
2018-09-20T04:17:58.980Z,17.83
2018-09-20T04:20:27.329Z,14.73
2018-09-20T04:22:55.729Z,16.23
2018-09-20T04:25:24.433Z,17.70
2018-09-20T04:27:53.101Z,15.50
2018-09-20T04:30:21.417Z,17.43
2018-09-20T04:32:49.780Z,16.07
2018-09-20T04:35:20.233Z,18.83
2018-09-20T04:37:51.452Z,16.37
2018-09-20T04:40:19.919Z,12.63
2018-09-20T04:42:48.332Z,13.80
2018-09-20T04:45:16.760Z,12.50
2018-09-20T04:47:45.782Z,15.70
2018-09-20T04:50:14.319Z,15.27
2018-09-20T04:52:42.734Z,15.63
2018-09-20T04:55:11.238Z,14.20
2018-09-20T04:57:40.269Z,13.53
2018-09-20T05:00:08.692Z,18.95
2018-09-20T05:02:37.081Z,13.20
2018-09-20T05:05:11.785Z,13.47
2018-09-20T05:07:40.497Z,13.77
2018-09-20T05:10:09.154Z,18.53
2018-09-20T05:12:37.964Z,13.75
2018-09-20T05:15:06.405Z,16.27
2018-09-20T05:17:35.056Z,13.83
2018-09-20T05:20:03.613Z,12.37
2018-09-20T05:22:32.017Z,15.27
2018-09-20T05:30:30.503Z,14.27
2018-09-20T05:32:59.004Z,13.97
2018-09-20T05:35:28.816Z,14.63
2018-09-20T05:37:57.312Z,16.10
2018-09-20T05:40:25.798Z,15.15
2018-09-20T05:42:54.204Z,16.83
2018-09-20T05:45:22.841Z,15.40
2018-09-20T05:47:51.283Z,16.47
2018-09-20T05:50:19.724Z,15.77
2018-09-20T05:52:48.130Z,15.80
2018-09-20T05:55:16.533Z,15.63
2018-09-20T05:57:45.079Z,14.93
2018-09-20T06:00:13.536Z,17.23
2018-09-20T06:02:42.028Z,16.57
2018-09-20T06:05:15.756Z,19.50
2018-09-20T06:07:45.291Z,15.23
2018-09-20T06:10:13.719Z,25.40
2018-09-20T06:12:42.069Z,17.90
2018-09-20T06:15:10.524Z,17.15
2018-09-20T06:17:38.908Z,18.93
2018-09-20T06:20:07.629Z,16.23
2018-09-20T06:22:36.125Z,17.80
2018-09-20T06:25:04.673Z,17.13
2018-09-20T06:27:33.167Z,17.90
2018-09-20T06:30:01.561Z,22.30
2018-09-20T06:32:31.106Z,20.73
2018-09-20T06:35:01.889Z,20.32
2018-09-20T06:37:30.315Z,16.40
2018-09-20T06:39:58.898Z,15.72
2018-09-20T06:42:29.081Z,22.63
2018-09-20T06:44:57.577Z,18.23
2018-09-20T06:47:26.688Z,19.07
2018-09-20T06:49:55.080Z,20.47
2018-09-20T06:52:23.489Z,16.27
2018-09-20T06:54:51.992Z,22.67
2018-09-20T06:57:20.412Z,16.47
2018-09-20T06:59:48.873Z,20.30
2018-09-20T07:02:17.260Z,18.23
2018-09-20T07:04:46.581Z,17.30
2018-09-20T07:07:15.022Z,19.80
2018-09-20T07:09:43.502Z,17.60
2018-09-20T07:12:11.931Z,22.77
2018-09-20T07:14:40.394Z,23.83
2018-09-20T07:17:08.828Z,27.43
2018-09-20T07:19:37.249Z,24.47
2018-09-20T07:22:06.482Z,18.50
2018-09-20T07:24:34.884Z,25.70
2018-09-20T07:27:03.288Z,19.15
2018-09-20T07:29:32.095Z,22.20
2018-09-20T07:32:01.630Z,20.87
2018-09-20T07:34:30.108Z,16.10
2018-09-20T07:36:58.507Z,23.20
2018-09-20T07:39:26.877Z,21.60
2018-09-20T07:41:55.382Z,19.17
2018-09-20T07:44:23.893Z,17.17
2018-09-20T07:46:52.313Z,20.07
2018-09-20T07:49:20.927Z,16.35
2018-09-20T07:51:49.397Z,15.20
2018-09-20T07:54:17.743Z,20.02
2018-09-20T07:56:46.235Z,17.00
2018-09-20T07:59:14.566Z,19.97
2018-09-20T08:01:43.061Z,21.10
2018-09-20T08:04:11.651Z,13.68
2018-09-20T08:06:40.508Z,20.00
2018-09-20T08:09:11.025Z,15.67
2018-09-20T08:11:39.503Z,18.10
2018-09-20T08:14:07.988Z,15.70
2018-09-20T08:16:36.372Z,10.07
2018-09-20T08:19:04.808Z,15.10
2018-09-20T08:21:33.478Z,10.67
2018-09-20T08:24:02.574Z,9.93
2018-09-20T08:26:30.994Z,13.37
2018-09-20T08:28:59.393Z,14.50
2018-09-20T08:31:27.859Z,9.13
2018-09-20T08:33:56.290Z,13.83
2018-09-20T08:36:24.792Z,14.67
2018-09-20T08:38:53.485Z,9.90
2018-09-20T08:41:22.752Z,22.02
2018-09-20T08:43:51.162Z,9.27
2018-09-20T08:46:19.626Z,14.50
2018-09-20T08:48:48.115Z,16.73
2018-09-20T08:51:16.542Z,9.73
2018-09-20T08:53:44.930Z,10.93
2018-09-20T08:56:13.499Z,12.70
2018-09-20T08:58:42.013Z,11.97
2018-09-20T09:01:10.382Z,13.00
2018-09-20T09:03:38.859Z,13.37
2018-09-20T09:06:07.351Z,15.45
2018-09-20T09:08:35.812Z,14.27
2018-09-20T09:11:04.285Z,8.47
2018-09-20T09:13:32.872Z,12.30
2018-09-20T09:16:01.276Z,16.63
2018-09-20T09:18:29.708Z,9.85
2018-09-20T09:20:58.137Z,6.83
2018-09-20T09:23:26.506Z,13.13
2018-09-20T09:25:54.915Z,6.40
2018-09-20T09:28:23.370Z,11.27
2018-09-20T09:30:51.863Z,11.80
2018-09-20T09:33:20.630Z,11.80
2018-09-20T09:35:49.730Z,8.67
2018-09-20T09:38:18.282Z,11.77
2018-09-20T09:40:46.796Z,7.93
2018-09-20T09:43:15.082Z,8.93
2018-09-20T09:45:43.485Z,8.60
2018-09-20T09:48:11.950Z,10.63
2018-09-20T09:50:40.679Z,6.50
2018-09-20T09:53:09.195Z,7.37
2018-09-20T09:55:37.677Z,8.20
2018-09-20T09:58:06.213Z,8.70
2018-09-20T10:00:36.518Z,9.98
2018-09-20T10:03:04.913Z,11.90
2018-09-20T10:05:33.383Z,9.53
2018-09-20T10:08:01.833Z,11.50
2018-09-20T10:10:30.372Z,8.43
2018-09-20T10:12:58.789Z,8.18
2018-09-20T10:15:27.202Z,13.70
2018-09-20T10:17:55.581Z,9.90
2018-09-20T10:20:24.034Z,12.53
2018-09-20T10:22:52.551Z,10.40
2018-09-20T10:25:20.982Z,7.83
2018-09-20T10:27:49.374Z,12.00
2018-09-20T10:30:17.880Z,9.20
2018-09-20T10:32:46.281Z,6.83
2018-09-20T10:35:14.696Z,11.18
2018-09-20T10:37:43.193Z,16.30
2018-09-20T10:40:11.619Z,11.40
2018-09-20T10:42:40.015Z,6.70
2018-09-20T10:45:08.454Z,8.27
2018-09-20T10:47:36.915Z,12.20
2018-09-20T10:50:05.496Z,7.53
2018-09-20T10:52:33.990Z,11.63
2018-09-20T10:55:02.477Z,7.00
2018-09-20T10:57:30.933Z,9.18
2018-09-20T10:59:59.293Z,11.60
2018-09-20T11:02:27.726Z,12.15
2018-09-20T11:04:56.873Z,11.33
2018-09-20T11:07:25.295Z,9.13
2018-09-20T11:09:53.744Z,8.45
2018-09-20T11:12:22.141Z,10.33
2018-09-20T11:14:50.552Z,6.13
2018-09-20T11:17:18.950Z,7.27
2018-09-20T11:19:47.303Z,10.97
2018-09-20T11:22:15.681Z,12.23
2018-09-20T11:24:44.057Z,12.63
2018-09-20T11:27:12.518Z,8.43
2018-09-20T11:29:40.905Z,5.80
2018-09-20T11:32:09.339Z,5.93
2018-09-20T11:34:37.851Z,9.70
2018-09-20T11:37:06.252Z,10.93
2018-09-20T11:39:34.667Z,8.53
2018-09-20T11:42:03.034Z,12.93
2018-09-20T11:44:31.391Z,9.80
2018-09-20T11:46:59.833Z,10.37
2018-09-20T11:49:28.360Z,8.37
2018-09-20T11:51:56.771Z,6.35
2018-09-20T11:54:25.224Z,7.27
2018-09-20T11:56:53.659Z,6.10
2018-09-20T11:59:22.076Z,6.23
2018-09-20T12:01:50.504Z,8.83
2018-09-20T12:04:18.881Z,4.87
2018-09-20T12:06:47.371Z,8.33
2018-09-20T12:09:16.641Z,8.10
2018-09-20T12:11:45.143Z,8.00
2018-09-20T12:14:13.642Z,8.60
2018-09-20T12:16:42.115Z,7.33
2018-09-20T12:19:10.589Z,8.30
2018-09-20T12:21:38.981Z,5.50
2018-09-20T12:24:07.498Z,7.37
2018-09-20T12:26:35.948Z,6.13
2018-09-20T12:29:04.335Z,5.50
2018-09-20T12:31:32.878Z,4.43
2018-09-20T12:34:01.296Z,5.05
2018-09-20T12:36:29.728Z,5.70
2018-09-20T12:38:58.250Z,5.70
2018-09-20T12:41:26.620Z,5.87
2018-09-20T12:43:55.646Z,6.87
2018-09-20T12:46:24.079Z,5.50
2018-09-20T12:48:52.604Z,3.20
2018-09-20T12:51:21.014Z,5.17
2018-09-20T12:53:49.436Z,6.87
2018-09-20T12:56:18.156Z,5.00
2018-09-20T12:58:49.401Z,4.40
2018-09-20T13:01:18.736Z,9.23
2018-09-20T13:03:47.363Z,3.80
2018-09-20T13:06:15.888Z,5.73
2018-09-20T13:08:44.261Z,3.97
2018-09-20T13:11:13.643Z,5.80
2018-09-20T13:13:42.313Z,7.73
2018-09-20T13:16:10.921Z,6.20
2018-09-20T13:18:39.375Z,4.33
2018-09-20T13:21:07.877Z,6.90
2018-09-20T13:23:36.324Z,4.60
2018-09-20T13:26:04.765Z,4.33
2018-09-20T13:28:33.204Z,7.00
2018-09-20T13:31:01.712Z,5.47
2018-09-20T13:33:30.085Z,6.00
2018-09-20T13:35:58.520Z,3.33
2018-09-20T13:38:26.954Z,6.73
2018-09-20T13:40:55.512Z,7.33
2018-09-20T13:43:23.968Z,6.35
2018-09-20T13:45:52.714Z,4.08
2018-09-20T13:48:21.234Z,4.13
2018-09-20T13:50:49.642Z,4.43
2018-09-20T13:53:18.116Z,6.37
2018-09-20T13:55:46.538Z,9.90
2018-09-20T13:58:15.209Z,9.97
2018-09-20T14:00:43.669Z,4.20
2018-09-20T14:03:12.111Z,7.77
2018-09-20T14:05:40.560Z,5.27
2018-09-20T14:08:09.036Z,9.28
2018-09-20T14:10:37.513Z,5.73
2018-09-20T14:13:05.965Z,6.43
2018-09-20T14:15:34.491Z,5.23
2018-09-20T14:18:02.903Z,7.10
2018-09-20T14:20:32.260Z,6.15
2018-09-20T14:23:00.774Z,5.23
2018-09-20T14:25:29.211Z,7.93
2018-09-20T14:27:57.666Z,8.73
2018-09-20T14:30:26.133Z,8.20
2018-09-20T14:32:54.661Z,7.60
2018-09-20T14:35:23.128Z,4.53
2018-09-20T14:37:51.540Z,7.80
2018-09-20T14:40:19.968Z,8.30
2018-09-20T14:42:48.420Z,14.23
2018-09-20T14:45:16.846Z,7.55
2018-09-20T14:47:45.274Z,4.63
2018-09-20T14:50:13.722Z,5.03
2018-09-20T14:52:42.287Z,5.93
2018-09-20T14:55:10.698Z,6.30
2018-09-20T14:57:39.083Z,6.47
2018-09-20T15:00:07.520Z,4.83
2018-09-20T15:02:35.952Z,6.83
2018-09-20T15:05:04.496Z,4.33
2018-09-20T15:07:32.972Z,9.07
2018-09-20T15:10:01.341Z,7.17
2018-09-20T15:12:29.807Z,7.28
2018-09-20T15:14:58.342Z,4.80
2018-09-20T15:17:26.722Z,5.53
2018-09-20T15:19:55.082Z,5.92
2018-09-20T15:22:23.499Z,7.67
2018-09-20T15:24:51.981Z,4.87
2018-09-20T15:27:20.368Z,4.80
2018-09-20T15:29:49.733Z,6.12
2018-09-20T15:32:18.100Z,5.10
2018-09-20T15:34:46.496Z,6.10
2018-09-20T15:37:14.908Z,6.53
2018-09-20T15:39:43.337Z,5.10
2018-09-20T15:42:11.742Z,6.63
2018-09-20T15:44:40.201Z,7.80
2018-09-20T15:47:09.637Z,8.53
2018-09-20T15:49:38.757Z,8.03
2018-09-20T15:52:07.888Z,6.40
2018-09-20T15:54:36.302Z,4.10
2018-09-20T15:57:04.821Z,4.80
2018-09-20T15:59:33.226Z,5.33
2018-09-20T16:02:01.700Z,5.80
2018-09-20T16:04:30.122Z,10.70
2018-09-20T16:06:58.481Z,9.33
2018-09-20T16:09:26.882Z,5.47
2018-09-20T16:11:55.299Z,7.93
2018-09-20T16:14:23.748Z,7.33
2018-09-20T16:16:52.213Z,5.83
2018-09-20T16:19:20.777Z,6.45
2018-09-20T16:21:49.200Z,7.73
2018-09-20T16:24:17.604Z,5.10
2018-09-20T16:26:46.024Z,8.50
2018-09-20T16:29:27.854Z,7.20
2018-09-20T16:34:09.457Z,4.97
2018-09-20T16:36:54.047Z,6.10
2018-09-20T16:39:24.305Z,10.33
2018-09-20T16:41:56.066Z,7.90
2018-09-20T16:44:25.421Z,7.43
2018-09-20T16:46:53.837Z,10.50
2018-09-20T16:49:22.203Z,8.08
2018-09-20T16:51:50.594Z,5.83
2018-09-20T16:54:19.554Z,6.53
2018-09-20T16:56:48.038Z,6.90
2018-09-20T16:59:17.288Z,7.67
2018-09-20T17:01:45.728Z,6.67
2018-09-20T17:04:14.127Z,7.30
2018-09-20T17:06:42.556Z,6.70
2018-09-20T17:09:10.903Z,8.15
2018-09-20T17:11:39.342Z,7.57
2018-09-20T17:14:07.739Z,7.03
2018-09-20T17:16:36.170Z,8.43
2018-09-20T17:19:05.496Z,8.90
2018-09-20T17:21:33.996Z,5.93
2018-09-20T17:24:02.607Z,5.57
2018-09-20T17:26:31.155Z,8.10
2018-09-20T17:28:59.917Z,6.10
2018-09-20T17:31:29.597Z,9.30
2018-09-20T17:33:58.215Z,15.87
2018-09-20T17:36:28.239Z,8.23
2018-09-20T17:38:57.883Z,11.70
2018-09-20T17:41:30.536Z,5.33
2018-09-20T17:44:02.128Z,8.00
2018-09-20T17:46:30.865Z,6.25
2018-09-20T17:48:59.606Z,7.80
2018-09-20T17:51:29.187Z,7.67
2018-09-20T17:54:00.959Z,9.23
2018-09-20T17:56:29.890Z,9.40
2018-09-20T17:58:58.841Z,5.73
2018-09-20T18:01:27.246Z,7.30
2018-09-20T18:03:55.795Z,7.63
2018-09-20T18:06:24.255Z,5.87
2018-09-20T18:08:52.773Z,7.60
2018-09-20T18:11:21.278Z,6.90
2018-09-20T18:13:49.740Z,9.63
2018-09-20T18:16:18.279Z,7.83
2018-09-20T18:18:48.712Z,9.70
2018-09-20T18:21:17.951Z,15.88
2018-09-20T18:23:58.290Z,11.13
2018-09-20T18:26:26.658Z,11.00
2018-09-20T18:28:55.093Z,10.40
2018-09-20T18:31:23.600Z,16.10
2018-09-20T18:33:52.022Z,8.17
2018-09-20T18:36:20.537Z,13.87
2018-09-20T18:38:49.641Z,8.98
2018-09-20T18:41:18.118Z,9.17
2018-09-20T18:43:47.151Z,9.73
2018-09-20T18:46:15.627Z,7.30
2018-09-20T18:48:44.609Z,12.90
2018-09-20T18:51:13.178Z,9.90
2018-09-20T18:53:41.678Z,8.53
2018-09-20T18:56:10.092Z,11.70
2018-09-20T18:58:38.708Z,6.00
2018-09-20T19:01:07.323Z,11.43
2018-09-20T19:03:35.737Z,11.65
2018-09-20T19:06:04.275Z,10.37
2018-09-20T19:08:33.417Z,10.90
2018-09-20T19:11:02.256Z,8.88
2018-09-20T19:13:30.671Z,7.33
2018-09-20T19:15:59.167Z,11.33
2018-09-20T19:18:27.615Z,15.37
2018-09-20T19:20:56.085Z,9.73
2018-09-20T19:23:25.472Z,6.57
2018-09-20T19:25:53.916Z,7.80
2018-09-20T19:28:25.133Z,8.30
2018-09-20T19:31:05.351Z,13.43
2018-09-20T19:33:36.658Z,7.87
2018-09-20T19:36:09.256Z,10.47
2018-09-20T19:38:40.187Z,9.40
2018-09-20T19:41:08.685Z,8.30
2018-09-20T19:43:37.992Z,9.70
2018-09-20T19:46:07.200Z,9.33
2018-09-20T19:48:35.562Z,8.55
2018-09-20T19:51:04.051Z,6.87
2018-09-20T19:53:33.261Z,10.53
2018-09-20T19:56:01.930Z,6.83
2018-09-20T19:58:31.621Z,11.80
2018-09-20T20:01:00.152Z,10.23
2018-09-20T20:03:28.669Z,11.93
2018-09-20T20:05:57.180Z,7.03
2018-09-20T20:08:25.632Z,6.37
2018-09-20T20:10:55.545Z,7.90
2018-09-20T20:13:24.548Z,7.53
2018-09-20T20:15:54.659Z,10.17
2018-09-20T20:18:23.616Z,8.97
2018-09-20T20:20:52.124Z,7.17
2018-09-20T20:23:23.290Z,9.53
2018-09-20T20:28:26.314Z,9.00
2018-09-20T20:30:55.428Z,7.90
2018-09-20T20:33:24.029Z,12.30
2018-09-20T20:35:55.141Z,7.00
2018-09-20T20:38:36.897Z,8.40
2018-09-20T20:41:05.448Z,6.40
2018-09-20T20:43:34.032Z,6.90
2018-09-20T20:46:03.084Z,10.00
2018-09-20T20:48:31.573Z,10.30
2018-09-20T20:51:00.189Z,12.10
2018-09-20T20:53:28.568Z,9.83
2018-09-20T20:55:57.882Z,12.45
2018-09-20T20:58:26.467Z,8.53
2018-09-20T21:00:54.960Z,8.50
2018-09-20T21:03:23.427Z,15.90
2018-09-20T21:05:51.872Z,7.87
2018-09-20T21:08:20.316Z,7.70
2018-09-20T21:10:48.717Z,9.38
2018-09-20T21:13:17.087Z,11.37
2018-09-20T21:15:46.412Z,7.00
2018-09-20T21:18:14.833Z,10.90
2018-09-20T21:23:29.185Z,9.00
2018-09-20T21:25:58.302Z,9.70
2018-09-20T21:28:26.770Z,12.00
2018-09-20T21:30:55.247Z,10.37
2018-09-20T21:33:23.730Z,9.53
2018-09-20T21:35:52.112Z,11.30
2018-09-20T21:38:20.556Z,12.93
2018-09-20T21:40:49.031Z,9.50
2018-09-20T21:43:17.447Z,14.28
2018-09-20T21:45:45.832Z,7.43
2018-09-20T21:48:14.813Z,9.30
2018-09-20T21:50:43.272Z,12.75
2018-09-20T21:53:12.299Z,9.93
2018-09-20T21:55:40.791Z,11.43
2018-09-20T21:58:09.279Z,8.57
2018-09-20T22:00:37.813Z,8.18
2018-09-20T22:03:06.196Z,10.10
2018-09-20T22:05:35.362Z,9.88
2018-09-20T22:08:03.828Z,7.90
2018-09-20T22:10:32.615Z,8.10
2018-09-20T22:13:01.645Z,9.30
2018-09-20T22:15:30.616Z,11.03
2018-09-20T22:17:59.497Z,13.03
2018-09-20T22:20:29.225Z,8.63
2018-09-20T22:22:58.563Z,7.83
2018-09-20T22:25:26.958Z,8.30
2018-09-20T22:27:55.768Z,9.20
2018-09-20T22:30:25.935Z,10.67
2018-09-20T22:32:54.446Z,11.93
2018-09-20T22:35:22.944Z,11.30
2018-09-20T22:37:51.438Z,9.65
2018-09-20T22:40:19.825Z,7.60
2018-09-20T22:42:48.229Z,10.67
2018-09-20T22:45:16.677Z,8.57
2018-09-20T22:47:45.075Z,13.43
2018-09-20T22:50:13.509Z,11.87
2018-09-20T22:52:41.943Z,11.20
2018-09-20T22:55:10.409Z,11.20
2018-09-20T22:57:38.801Z,12.53
2018-09-20T23:00:07.341Z,7.63
2018-09-20T23:02:35.745Z,9.93
2018-09-20T23:05:04.351Z,16.37
2018-09-20T23:07:32.809Z,11.20
2018-09-20T23:10:01.241Z,13.97
2018-09-20T23:12:30.492Z,9.43
2018-09-20T23:14:58.912Z,9.17
2018-09-20T23:17:28.384Z,11.30
2018-09-20T23:19:56.793Z,9.53
2018-09-20T23:22:27.848Z,12.30
2018-09-20T23:24:56.347Z,12.70
2018-09-20T23:27:24.803Z,8.93
2018-09-20T23:29:53.272Z,12.73
2018-09-20T23:32:21.657Z,8.70
2018-09-20T23:34:50.024Z,13.37
2018-09-20T23:37:18.463Z,9.70
2018-09-20T23:39:46.856Z,8.53
2018-09-20T23:42:15.237Z,10.23
2018-09-20T23:44:44.313Z,16.77
2018-09-20T23:47:12.705Z,8.50
2018-09-20T23:49:41.093Z,11.40
2018-09-20T23:52:09.497Z,10.83
2018-09-20T23:54:38.532Z,10.20
2018-09-20T23:57:07.277Z,11.70
2018-09-20T23:59:35.675Z,12.77
